createdAt,value
2019-05-03T00:00:23.674Z,8.3
2019-05-03T00:01:24.366Z,8.3
2019-05-03T00:02:25.012Z,8.3
2019-05-03T00:03:25.697Z,8.3
2019-05-03T00:04:26.385Z,8.3
2019-05-03T00:05:27.081Z,8.2
2019-05-03T00:06:27.757Z,8.2
2019-05-03T00:07:28.444Z,8.3
2019-05-03T00:08:29.122Z,8.3
2019-05-03T00:09:31.913Z,8.3
2019-05-03T00:10:31.777Z,8.3
2019-05-03T00:11:32.691Z,8.3
2019-05-03T00:12:32.753Z,8.3
2019-05-03T00:13:32.632Z,8.2
2019-05-03T00:14:33.211Z,8.3
2019-05-03T00:15:33.894Z,8.2
2019-05-03T00:16:34.575Z,8.3
2019-05-03T00:17:35.317Z,8.3
2019-05-03T00:18:36.006Z,8.3
2019-05-03T00:19:36.677Z,8.2
2019-05-03T00:20:37.325Z,8.2
2019-05-03T00:21:38.039Z,8.1
2019-05-03T00:22:38.702Z,8.1
2019-05-03T00:23:39.381Z,8.1
2019-05-03T00:24:40.064Z,8.0
2019-05-03T00:25:41.797Z,8.0
2019-05-03T00:26:42.306Z,7.9
2019-05-03T00:27:42.815Z,7.9
2019-05-03T00:28:42.808Z,7.9
2019-05-03T00:29:43.443Z,7.9
2019-05-03T00:30:44.136Z,7.9
2019-05-03T00:31:44.816Z,7.8
2019-05-03T00:32:45.491Z,7.8
2019-05-03T00:33:46.175Z,7.8
2019-05-03T00:34:46.861Z,7.8
2019-05-03T00:35:47.538Z,7.7
2019-05-03T00:36:48.222Z,7.8
2019-05-03T00:37:48.907Z,7.7
2019-05-03T00:38:49.594Z,7.7
2019-05-03T00:39:52.294Z,7.8
2019-05-03T00:40:52.334Z,7.7
2019-05-03T00:41:52.094Z,7.6
2019-05-03T00:42:52.415Z,7.7
2019-05-03T00:43:53.098Z,7.7
2019-05-03T00:44:53.777Z,7.7
2019-05-03T00:45:54.459Z,7.7
2019-05-03T00:46:55.141Z,7.7
2019-05-03T00:47:55.820Z,7.7
2019-05-03T00:48:56.504Z,7.7
2019-05-03T00:49:57.179Z,7.6
2019-05-03T00:50:57.867Z,7.6
2019-05-03T00:51:58.546Z,7.6
2019-05-03T00:52:59.226Z,7.6
2019-05-03T00:54:01.995Z,7.6
2019-05-03T00:55:02.242Z,7.6
2019-05-03T00:56:01.738Z,7.6
2019-05-03T00:57:02.675Z,7.6
2019-05-03T00:58:02.702Z,7.5
2019-05-03T00:59:03.318Z,7.6
2019-05-03T01:00:03.992Z,7.6
2019-05-03T01:01:04.667Z,7.5
2019-05-03T01:02:05.361Z,7.5
2019-05-03T01:03:06.034Z,7.5
2019-05-03T01:04:06.735Z,7.5
2019-05-03T01:05:07.404Z,7.4
2019-05-03T01:06:08.084Z,7.5
2019-05-03T01:07:08.769Z,7.4
2019-05-03T01:08:09.451Z,7.4
2019-05-03T01:09:11.833Z,7.4
2019-05-03T01:10:11.816Z,7.4
2019-05-03T01:11:12.624Z,7.4
2019-05-03T01:12:12.597Z,7.5
2019-05-03T01:13:12.837Z,7.4
2019-05-03T01:14:13.521Z,7.4
2019-05-03T01:15:14.215Z,7.3
2019-05-03T01:16:14.897Z,7.4
2019-05-03T01:17:15.580Z,7.4
2019-05-03T01:18:16.257Z,7.4
2019-05-03T01:19:16.942Z,7.3
2019-05-03T01:20:17.621Z,7.4
2019-05-03T01:21:18.299Z,7.3
2019-05-03T01:22:18.989Z,7.3
2019-05-03T01:23:19.668Z,7.2
2019-05-03T01:24:21.718Z,7.2
2019-05-03T01:25:31.597Z,7.3
2019-05-03T01:26:22.696Z,7.3
2019-05-03T01:27:22.390Z,7.3
2019-05-03T01:28:23.093Z,7.3
2019-05-03T01:29:23.764Z,7.4
2019-05-03T01:30:24.460Z,7.4
2019-05-03T01:31:25.136Z,7.4
2019-05-03T01:32:25.825Z,7.4
2019-05-03T01:33:26.518Z,7.4
2019-05-03T01:34:27.200Z,7.3
2019-05-03T01:35:27.849Z,7.3
2019-05-03T01:36:28.535Z,7.4
2019-05-03T01:37:29.210Z,7.3
2019-05-03T01:38:31.738Z,7.4
2019-05-03T01:39:31.611Z,7.3
2019-05-03T01:40:32.575Z,7.2
2019-05-03T01:41:32.340Z,7.3
2019-05-03T01:42:32.636Z,7.2
2019-05-03T01:43:33.291Z,7.3
2019-05-03T01:44:33.975Z,7.3
2019-05-03T01:45:34.666Z,7.3
2019-05-03T01:46:35.347Z,7.3
2019-05-03T01:47:36.032Z,7.2
2019-05-03T01:48:36.710Z,7.1
2019-05-03T01:49:37.390Z,7.2
2019-05-03T01:50:38.076Z,7.2
2019-05-03T01:51:38.757Z,7.2
2019-05-03T01:52:39.440Z,7.2
2019-05-03T01:53:41.667Z,7.2
2019-05-03T01:54:42.607Z,7.2
2019-05-03T01:55:44.495Z,7.2
2019-05-03T01:56:55.313Z,7.1
2019-05-03T01:57:42.849Z,7.1
2019-05-03T01:58:43.538Z,7.1
2019-05-03T01:59:44.212Z,7.1
2019-05-03T02:00:44.896Z,7.0
2019-05-03T02:01:45.573Z,7.0
2019-05-03T02:02:46.255Z,7.1
2019-05-03T02:03:46.941Z,7.1
2019-05-03T02:04:47.611Z,7.1
2019-05-03T02:05:48.349Z,7.1
2019-05-03T02:06:49.046Z,7.1
2019-05-03T02:07:51.848Z,7.1
2019-05-03T02:08:52.071Z,7.1
2019-05-03T02:09:51.971Z,7.1
2019-05-03T02:10:51.860Z,7.1
2019-05-03T02:11:52.637Z,7.1
2019-05-03T02:12:53.103Z,7.0
2019-05-03T02:13:53.784Z,7.1
2019-05-03T02:14:54.466Z,7.1
2019-05-03T02:15:55.146Z,7.1
2019-05-03T02:16:55.833Z,7.1
2019-05-03T02:17:56.564Z,7.1
2019-05-03T02:18:57.207Z,7.0
2019-05-03T02:19:57.886Z,7.1
2019-05-03T02:20:58.569Z,7.1
2019-05-03T02:21:59.248Z,7.0
2019-05-03T02:22:59.935Z,7.0
2019-05-03T02:24:02.466Z,7.0
2019-05-03T02:25:01.716Z,7.0
2019-05-03T02:26:03.050Z,7.0
2019-05-03T02:27:02.667Z,7.0
2019-05-03T02:28:03.364Z,7.0
2019-05-03T02:29:04.032Z,7.0
2019-05-03T02:30:04.734Z,7.0
2019-05-03T02:31:05.397Z,7.0
2019-05-03T02:32:06.080Z,7.0
2019-05-03T02:33:06.766Z,6.9
2019-05-03T02:34:07.456Z,7.0
2019-05-03T02:35:08.128Z,6.9
2019-05-03T02:36:08.807Z,7.0
2019-05-03T02:37:09.495Z,6.9
2019-05-03T02:38:12.802Z,6.9
2019-05-03T02:39:13.327Z,6.9
2019-05-03T02:40:12.995Z,6.9
2019-05-03T02:41:13.511Z,6.9
2019-05-03T02:42:15.869Z,6.9
2019-05-03T02:43:16.372Z,6.9
2019-05-03T02:44:15.615Z,6.9
2019-05-03T02:45:15.410Z,6.9
2019-05-03T02:46:16.840Z,7.0
2019-05-03T02:47:16.264Z,6.9
2019-05-03T02:48:16.947Z,6.9
2019-05-03T02:49:17.619Z,6.9
2019-05-03T02:50:18.306Z,6.9
2019-05-03T02:51:18.999Z,6.9
2019-05-03T02:52:19.679Z,6.8
2019-05-03T02:53:20.361Z,6.9
2019-05-03T02:54:21.008Z,6.8
2019-05-03T02:55:21.697Z,6.8
2019-05-03T02:56:25.703Z,6.8
2019-05-03T02:57:25.879Z,6.8
2019-05-03T02:58:25.307Z,6.7
2019-05-03T02:59:26.457Z,6.7
2019-05-03T03:00:26.106Z,6.8
2019-05-03T03:01:26.862Z,6.8
2019-05-03T03:02:27.464Z,6.8
2019-05-03T03:03:28.150Z,6.9
2019-05-03T03:04:28.826Z,6.8
2019-05-03T03:05:29.514Z,6.8
2019-05-03T03:06:30.192Z,6.8
2019-05-03T03:07:30.870Z,6.8
2019-05-03T03:08:33.457Z,6.8
2019-05-03T03:09:32.241Z,6.8
2019-05-03T03:10:35.480Z,6.8
2019-05-03T03:11:35.579Z,6.8
2019-05-03T03:12:35.567Z,6.9
2019-05-03T03:13:36.866Z,6.8
2019-05-03T03:14:36.306Z,6.9
2019-05-03T03:15:36.428Z,6.8
2019-05-03T03:16:36.998Z,6.8
2019-05-03T03:17:37.674Z,6.9
2019-05-03T03:18:38.354Z,6.8
2019-05-03T03:19:39.042Z,6.8
2019-05-03T03:20:39.724Z,6.8
2019-05-03T03:21:40.432Z,6.8
2019-05-03T03:22:41.119Z,6.8
2019-05-03T03:23:41.782Z,6.8
2019-05-03T03:24:45.503Z,6.8
2019-05-03T03:25:43.143Z,6.8
2019-05-03T03:26:47.054Z,6.7
2019-05-03T03:27:45.338Z,6.8
2019-05-03T03:28:46.271Z,6.8
2019-05-03T03:29:46.010Z,6.8
2019-05-03T03:30:48.590Z,6.7
2019-05-03T03:31:48.166Z,6.8
2019-05-03T03:32:48.301Z,6.7
2019-05-03T03:33:48.595Z,6.8
2019-05-03T03:34:55.346Z,6.7
2019-05-03T03:35:49.958Z,6.6
2019-05-03T03:37:00.661Z,6.6
2019-05-03T03:37:51.316Z,6.6
2019-05-03T03:38:51.998Z,6.6
2019-05-03T03:39:52.683Z,6.6
2019-05-03T03:40:56.463Z,6.6
2019-05-03T03:41:55.821Z,6.6
2019-05-03T03:42:55.705Z,6.5
2019-05-03T03:43:55.902Z,6.7
2019-05-03T03:44:56.403Z,6.5
2019-05-03T03:45:56.771Z,6.6
2019-05-03T03:46:57.450Z,6.6
2019-05-03T03:47:58.129Z,6.6
2019-05-03T03:48:58.813Z,6.6
2019-05-03T03:49:59.515Z,6.7
2019-05-03T03:51:00.181Z,6.6
2019-05-03T03:52:00.872Z,6.6
2019-05-03T03:53:01.559Z,6.6
2019-05-03T03:54:02.235Z,6.6
2019-05-03T03:55:06.168Z,6.6
2019-05-03T03:56:05.596Z,6.6
2019-05-03T03:57:07.616Z,6.6
2019-05-03T03:58:06.545Z,6.6
2019-05-03T03:59:05.928Z,6.7
2019-05-03T04:00:06.334Z,6.6
2019-05-03T04:01:07.031Z,6.7
2019-05-03T04:02:07.702Z,6.6
2019-05-03T04:03:08.384Z,6.7
2019-05-03T04:04:09.040Z,6.5
2019-05-03T04:05:09.740Z,6.5
2019-05-03T04:06:10.407Z,6.4
2019-05-03T04:07:11.096Z,6.4
2019-05-03T04:08:11.780Z,6.4
2019-05-03T04:09:12.463Z,6.2
2019-05-03T04:10:15.662Z,6.3
2019-05-03T04:11:15.593Z,6.2
2019-05-03T04:12:16.539Z,6.3
2019-05-03T04:13:15.977Z,6.2
2019-05-03T04:14:16.218Z,6.2
2019-05-03T04:15:16.586Z,6.1
2019-05-03T04:16:20.996Z,6.2
2019-05-03T04:17:17.970Z,6.0
2019-05-03T04:18:18.643Z,6.1
2019-05-03T04:19:19.328Z,6.0
2019-05-03T04:20:20.007Z,6.0
2019-05-03T04:21:20.694Z,6.0
2019-05-03T04:22:21.395Z,6.0
2019-05-03T04:23:22.073Z,5.9
2019-05-03T04:24:25.335Z,5.9
2019-05-03T04:25:25.878Z,6.0
2019-05-03T04:26:29.519Z,5.9
2019-05-03T04:27:27.444Z,6.0
2019-05-03T04:28:25.747Z,5.9
2019-05-03T04:29:26.403Z,5.9
2019-05-03T04:30:27.075Z,6.0
2019-05-03T04:31:27.760Z,6.1
2019-05-03T04:32:29.079Z,6.1
2019-05-03T04:33:29.125Z,6.2
2019-05-03T04:34:29.814Z,6.2
2019-05-03T04:35:30.497Z,6.1
2019-05-03T04:36:31.190Z,6.1
2019-05-03T04:37:31.844Z,6.2
2019-05-03T04:38:32.530Z,6.2
2019-05-03T04:39:35.629Z,6.1
2019-05-03T04:40:35.763Z,6.1
2019-05-03T04:41:35.680Z,6.2
2019-05-03T04:42:35.839Z,6.2
2019-05-03T04:43:35.965Z,6.2
2019-05-03T04:44:36.647Z,6.2
2019-05-03T04:45:37.334Z,6.1
2019-05-03T04:46:38.031Z,6.2
2019-05-03T04:47:38.714Z,6.2
2019-05-03T04:48:39.410Z,6.3
2019-05-03T04:49:40.070Z,6.2
2019-05-03T04:50:40.749Z,6.3
2019-05-03T04:51:41.437Z,6.3
2019-05-03T04:52:42.116Z,6.3
2019-05-03T04:53:45.311Z,6.3
2019-05-03T04:54:45.127Z,6.3
2019-05-03T04:55:46.593Z,6.2
2019-05-03T04:56:46.400Z,6.2
2019-05-03T04:57:49.142Z,6.3
2019-05-03T04:58:46.238Z,6.3
2019-05-03T04:59:46.946Z,6.2
2019-05-03T05:00:47.619Z,6.3
2019-05-03T05:01:48.310Z,6.4
2019-05-03T05:02:48.999Z,6.5
2019-05-03T05:03:49.675Z,6.5
2019-05-03T05:04:50.360Z,6.5
2019-05-03T05:05:51.045Z,6.5
2019-05-03T05:06:51.749Z,6.5
2019-05-03T05:07:52.422Z,6.5
2019-05-03T05:08:55.135Z,6.3
2019-05-03T05:09:56.239Z,6.3
2019-05-03T05:10:55.935Z,6.3
2019-05-03T05:11:55.157Z,6.3
2019-05-03T05:12:55.848Z,6.3
2019-05-03T05:13:56.540Z,6.3
2019-05-03T05:14:57.217Z,6.3
2019-05-03T05:15:57.907Z,6.5
2019-05-03T05:16:58.600Z,6.5
2019-05-03T05:17:59.281Z,6.8
2019-05-03T05:18:59.965Z,7.0
2019-05-03T05:20:00.646Z,7.4
2019-05-03T05:21:01.365Z,8.0
2019-05-03T05:22:03.953Z,8.4
2019-05-03T05:23:04.512Z,8.7
2019-05-03T05:24:05.317Z,8.9
2019-05-03T05:25:04.501Z,9.1
2019-05-03T05:26:05.537Z,9.0
2019-05-03T05:27:05.455Z,8.9
2019-05-03T05:28:06.144Z,8.7
2019-05-03T05:29:06.835Z,8.6
2019-05-03T05:30:07.516Z,8.7
2019-05-03T05:31:08.198Z,8.7
2019-05-03T05:32:08.885Z,8.5
2019-05-03T05:33:09.573Z,8.6
2019-05-03T05:34:10.263Z,8.4
2019-05-03T05:35:10.955Z,8.3
2019-05-03T05:36:11.634Z,8.1
2019-05-03T05:37:14.423Z,8.0
2019-05-03T05:38:14.950Z,8.1
2019-05-03T05:39:15.253Z,8.0
2019-05-03T05:40:15.615Z,7.9
2019-05-03T05:41:16.031Z,7.9
2019-05-03T05:42:16.715Z,7.9
2019-05-03T05:43:17.405Z,8.0
2019-05-03T05:44:18.096Z,8.0
2019-05-03T05:45:18.784Z,8.1
2019-05-03T05:46:19.473Z,8.1
2019-05-03T05:47:20.159Z,8.0
2019-05-03T05:48:20.843Z,8.1
2019-05-03T05:49:21.533Z,8.1
2019-05-03T05:50:22.235Z,8.3
2019-05-03T05:51:24.718Z,8.3
2019-05-03T05:52:24.688Z,8.3
2019-05-03T05:53:25.469Z,8.5
2019-05-03T05:54:25.928Z,8.3
2019-05-03T05:55:26.614Z,8.2
2019-05-03T05:56:27.304Z,8.2
2019-05-03T05:57:27.992Z,8.3
2019-05-03T05:58:28.682Z,8.3
2019-05-03T05:59:29.367Z,8.3
2019-05-03T06:00:30.052Z,8.3
2019-05-03T06:01:30.753Z,8.2
2019-05-03T06:02:31.436Z,8.1
2019-05-03T06:03:32.115Z,8.2
2019-05-03T06:04:34.793Z,8.1
2019-05-03T06:05:35.415Z,8.2
2019-05-03T06:06:34.811Z,8.2
2019-05-03T06:07:35.160Z,8.3
2019-05-03T06:08:35.552Z,8.3
2019-05-03T06:09:36.221Z,8.5
2019-05-03T06:10:36.907Z,8.4
2019-05-03T06:11:37.593Z,8.4
2019-05-03T06:12:38.281Z,8.5
2019-05-03T06:13:38.944Z,8.5
2019-05-03T06:14:39.625Z,8.6
2019-05-03T06:15:40.313Z,8.6
2019-05-03T06:16:41.001Z,8.6
2019-05-03T06:17:41.688Z,8.7
2019-05-03T06:18:42.376Z,8.8
2019-05-03T06:19:44.778Z,8.7
2019-05-03T06:20:45.145Z,9.0
2019-05-03T06:21:47.756Z,9.0
2019-05-03T06:22:46.082Z,9.3
2019-05-03T06:23:46.769Z,9.3
2019-05-03T06:24:47.458Z,9.3
2019-05-03T06:25:48.142Z,9.4
2019-05-03T06:26:48.836Z,9.3
2019-05-03T06:27:49.521Z,9.2
2019-05-03T06:28:50.202Z,9.3
2019-05-03T06:29:50.893Z,9.3
2019-05-03T06:30:51.582Z,9.2
2019-05-03T06:31:52.263Z,9.3
2019-05-03T06:32:55.032Z,9.1
2019-05-03T06:33:55.360Z,9.2
2019-05-03T06:34:54.637Z,9.3
2019-05-03T06:35:55.059Z,9.3
2019-05-03T06:36:55.756Z,9.2
2019-05-03T06:37:56.447Z,9.3
2019-05-03T06:38:57.141Z,9.4
2019-05-03T06:39:57.830Z,9.2
2019-05-03T06:40:58.520Z,9.3
2019-05-03T06:41:59.214Z,9.1
2019-05-03T06:43:08.664Z,9.2
2019-05-03T06:44:00.576Z,9.2
2019-05-03T06:45:08.262Z,9.3
2019-05-03T06:46:01.946Z,9.3
2019-05-03T06:47:06.707Z,9.3
2019-05-03T06:48:05.397Z,9.3
2019-05-03T06:49:06.610Z,9.4
2019-05-03T06:50:05.512Z,9.3
2019-05-03T06:51:10.430Z,9.3
2019-05-03T06:52:06.066Z,9.5
2019-05-03T06:53:12.593Z,9.6
2019-05-03T06:54:07.435Z,9.6
2019-05-03T06:55:10.637Z,9.7
2019-05-03T06:56:08.814Z,9.7
2019-05-03T06:57:09.815Z,9.7
2019-05-03T06:58:10.183Z,9.7
2019-05-03T06:59:10.874Z,9.8
2019-05-03T07:00:11.562Z,9.7
2019-05-03T07:01:12.251Z,9.7
2019-05-03T07:02:14.741Z,9.6
2019-05-03T07:03:15.142Z,9.6
2019-05-03T07:04:15.258Z,9.5
2019-05-03T07:05:15.334Z,9.4
2019-05-03T07:06:15.696Z,9.2
2019-05-03T07:07:16.375Z,9.1
2019-05-03T07:08:17.059Z,9.1
2019-05-03T07:09:17.747Z,9.1
2019-05-03T07:10:18.434Z,9.1
2019-05-03T07:11:19.123Z,9.0
2019-05-03T07:12:19.810Z,8.9
2019-05-03T07:13:20.467Z,9.4
2019-05-03T07:14:21.163Z,9.6
2019-05-03T07:15:21.850Z,10.0
2019-05-03T07:16:22.533Z,10.2
2019-05-03T07:17:24.867Z,10.3
2019-05-03T07:18:24.759Z,10.3
2019-05-03T07:19:25.017Z,10.4
2019-05-03T07:20:25.676Z,10.7
2019-05-03T07:21:25.971Z,10.8
2019-05-03T07:22:26.660Z,11.0
2019-05-03T07:23:27.357Z,11.1
2019-05-03T07:24:28.038Z,11.2
2019-05-03T07:25:28.727Z,11.3
2019-05-03T07:26:29.417Z,11.3
2019-05-03T07:27:30.108Z,11.5
2019-05-03T07:28:43.255Z,11.6
2019-05-03T07:29:31.481Z,11.8
2019-05-03T07:30:34.597Z,11.9
2019-05-03T07:31:32.860Z,11.7
2019-05-03T07:32:34.819Z,11.6
2019-05-03T07:33:34.692Z,11.5
2019-05-03T07:34:35.183Z,11.4
2019-05-03T07:35:35.611Z,11.2
2019-05-03T07:36:36.295Z,11.0
2019-05-03T07:37:36.986Z,10.8
2019-05-03T07:38:37.679Z,10.6
2019-05-03T07:39:38.366Z,10.4
2019-05-03T07:40:39.060Z,10.4
2019-05-03T07:41:39.746Z,10.4
2019-05-03T07:42:40.435Z,10.4
2019-05-03T07:43:41.135Z,10.6
2019-05-03T07:44:41.824Z,11.0
2019-05-03T07:45:44.573Z,11.5
2019-05-03T07:46:45.099Z,11.6
2019-05-03T07:47:45.198Z,11.9
2019-05-03T07:48:45.718Z,11.9
2019-05-03T07:49:45.267Z,12.3
2019-05-03T07:50:45.953Z,12.7
2019-05-03T07:51:46.642Z,13.0
2019-05-03T07:52:47.335Z,12.7
2019-05-03T07:53:48.021Z,12.2
2019-05-03T07:54:48.714Z,11.8
2019-05-03T07:55:49.405Z,11.6
2019-05-03T07:56:50.088Z,11.5
2019-05-03T07:57:50.777Z,11.2
2019-05-03T07:58:59.976Z,11.1
2019-05-03T07:59:52.150Z,11.1
2019-05-03T08:01:05.796Z,11.0
2019-05-03T08:01:54.639Z,11.0
2019-05-03T08:02:55.013Z,11.2
2019-05-03T08:03:55.224Z,11.3
2019-05-03T08:04:55.604Z,11.2
2019-05-03T08:05:56.294Z,11.7
2019-05-03T08:06:56.983Z,12.4
2019-05-03T08:07:57.676Z,13.0
2019-05-03T08:08:58.368Z,13.1
2019-05-03T08:09:59.061Z,12.9
2019-05-03T08:10:59.771Z,12.6
2019-05-03T08:12:00.455Z,12.5
2019-05-03T08:13:01.147Z,12.7
2019-05-03T08:14:01.845Z,13.1
2019-05-03T08:15:02.535Z,13.6
2019-05-03T08:16:05.664Z,13.9
2019-05-03T08:17:05.065Z,13.9
2019-05-03T08:18:04.955Z,13.5
2019-05-03T08:19:05.293Z,13.1
2019-05-03T08:20:05.979Z,13.0
2019-05-03T08:21:06.672Z,12.7
2019-05-03T08:22:07.369Z,12.3
2019-05-03T08:23:08.051Z,12.0
2019-05-03T08:24:08.753Z,11.7
2019-05-03T08:25:09.436Z,11.4
2019-05-03T08:26:10.130Z,11.4
2019-05-03T08:27:10.821Z,11.9
2019-05-03T08:28:11.513Z,12.3
2019-05-03T08:29:16.281Z,12.6
2019-05-03T08:30:14.680Z,13.0
2019-05-03T08:31:15.121Z,13.4
2019-05-03T08:32:15.394Z,13.5
2019-05-03T08:33:14.968Z,13.9
2019-05-03T08:34:15.648Z,14.3
2019-05-03T08:35:16.344Z,14.5
2019-05-03T08:36:17.037Z,14.7
2019-05-03T08:37:17.730Z,14.5
2019-05-03T08:38:18.428Z,14.1
2019-05-03T08:39:19.114Z,13.9
2019-05-03T08:40:19.803Z,13.7
2019-05-03T08:41:20.497Z,13.5
2019-05-03T08:42:21.190Z,13.4
2019-05-03T08:43:21.879Z,13.0
2019-05-03T08:44:24.937Z,12.8
2019-05-03T08:45:25.463Z,12.6
2019-05-03T08:46:25.337Z,13.0
2019-05-03T08:47:24.890Z,13.5
2019-05-03T08:48:25.331Z,13.8
2019-05-03T08:49:26.023Z,13.5
2019-05-03T08:50:26.719Z,13.4
2019-05-03T08:51:27.406Z,13.3
2019-05-03T08:52:28.107Z,13.2
2019-05-03T08:53:28.788Z,13.1
2019-05-03T08:54:29.481Z,12.8
2019-05-03T08:55:31.400Z,12.7
2019-05-03T08:56:30.867Z,12.7
2019-05-03T08:57:31.563Z,13.0
2019-05-03T08:58:32.254Z,13.1
2019-05-03T08:59:32.973Z,13.2
2019-05-03T09:00:35.314Z,13.4
2019-05-03T09:01:36.476Z,13.9
2019-05-03T09:02:35.029Z,13.6
2019-05-03T09:03:38.291Z,13.5
2019-05-03T09:04:38.620Z,13.3
2019-05-03T09:05:37.091Z,13.1
2019-05-03T09:06:37.782Z,12.7
2019-05-03T09:07:38.473Z,12.6
2019-05-03T09:08:39.164Z,12.3
2019-05-03T09:09:39.851Z,12.1
2019-05-03T09:10:40.541Z,12.0
2019-05-03T09:11:41.232Z,11.8
2019-05-03T09:12:41.926Z,11.6
2019-05-03T09:13:42.620Z,11.6
2019-05-03T09:14:46.415Z,11.6
2019-05-03T09:15:44.559Z,11.7
2019-05-03T09:16:44.839Z,11.7
2019-05-03T09:17:45.366Z,11.8
2019-05-03T09:18:46.061Z,11.9
2019-05-03T09:19:46.753Z,11.9
2019-05-03T09:20:47.453Z,12.2
2019-05-03T09:21:48.150Z,12.5
2019-05-03T09:22:48.832Z,13.2
2019-05-03T09:23:49.515Z,13.8
2019-05-03T09:24:50.208Z,14.1
2019-05-03T09:25:50.902Z,14.5
2019-05-03T09:26:51.599Z,14.7
2019-05-03T09:27:52.288Z,14.7
2019-05-03T09:28:52.978Z,14.5
2019-05-03T09:29:55.659Z,14.2
2019-05-03T09:30:55.269Z,13.8
2019-05-03T09:31:55.460Z,13.5
2019-05-03T09:32:55.857Z,13.4
2019-05-03T09:33:56.521Z,13.2
2019-05-03T09:34:57.214Z,12.9
2019-05-03T09:35:57.919Z,12.9
2019-05-03T09:36:58.603Z,12.6
2019-05-03T09:37:59.296Z,12.3
2019-05-03T09:38:59.985Z,12.3
2019-05-03T09:40:00.678Z,12.1
2019-05-03T09:41:01.370Z,12.1
2019-05-03T09:42:02.067Z,12.1
2019-05-03T09:43:04.482Z,11.8
2019-05-03T09:44:04.725Z,11.9
2019-05-03T09:45:04.930Z,11.8
2019-05-03T09:46:05.192Z,11.9
2019-05-03T09:47:05.794Z,12.1
2019-05-03T09:48:06.173Z,12.4
2019-05-03T09:49:13.448Z,12.8
2019-05-03T09:50:07.549Z,13.0
2019-05-03T09:51:08.238Z,13.0
2019-05-03T09:52:08.954Z,13.5
2019-05-03T09:53:09.626Z,13.9
2019-05-03T09:54:10.323Z,13.9
2019-05-03T09:55:11.012Z,14.3
2019-05-03T09:56:11.712Z,14.2
2019-05-03T09:57:12.415Z,14.0
2019-05-03T09:58:15.149Z,14.0
2019-05-03T09:59:14.783Z,14.5
2019-05-03T10:00:16.183Z,14.5
2019-05-03T10:01:15.262Z,14.8
2019-05-03T10:02:15.854Z,15.3
2019-05-03T10:03:16.544Z,15.8
2019-05-03T10:04:18.104Z,16.2
2019-05-03T10:05:17.922Z,16.3
2019-05-03T10:06:18.618Z,16.4
2019-05-03T10:07:19.308Z,16.2
2019-05-03T10:08:20.001Z,15.9
2019-05-03T10:09:20.697Z,15.4
2019-05-03T10:10:21.391Z,15.3
2019-05-03T10:11:22.083Z,14.9
2019-05-03T10:12:22.780Z,14.8
2019-05-03T10:13:26.751Z,14.6
2019-05-03T10:14:24.175Z,14.2
2019-05-03T10:15:26.049Z,13.8
2019-05-03T10:16:25.567Z,13.5
2019-05-03T10:17:26.246Z,13.5
2019-05-03T10:18:26.974Z,13.2
2019-05-03T10:19:36.647Z,13.2
2019-05-03T10:20:28.329Z,13.1
2019-05-03T10:21:29.029Z,13.2
2019-05-03T10:22:29.717Z,13.1
2019-05-03T10:23:30.416Z,13.1
2019-05-03T10:24:31.105Z,13.1
2019-05-03T10:25:31.794Z,13.2
2019-05-03T10:26:32.496Z,13.2
2019-05-03T10:27:34.707Z,13.6
2019-05-03T10:28:33.878Z,13.6
2019-05-03T10:29:34.566Z,13.6
2019-05-03T10:30:35.503Z,13.5
2019-05-03T10:31:35.955Z,13.6
2019-05-03T10:32:36.646Z,13.5
2019-05-03T10:33:37.362Z,13.7
2019-05-03T10:34:38.048Z,13.6
2019-05-03T10:35:38.739Z,13.7
2019-05-03T10:36:39.448Z,13.5
2019-05-03T10:37:40.146Z,13.5
2019-05-03T10:38:40.791Z,13.8
2019-05-03T10:39:41.483Z,14.3
2019-05-03T10:40:42.178Z,14.6
2019-05-03T10:41:45.201Z,15.1
2019-05-03T10:42:44.602Z,15.4
2019-05-03T10:43:45.444Z,15.6
2019-05-03T10:44:45.913Z,15.5
2019-05-03T10:45:46.604Z,15.5
2019-05-03T10:46:47.346Z,15.5
2019-05-03T10:47:48.039Z,15.5
2019-05-03T10:48:48.732Z,15.6
2019-05-03T10:49:49.427Z,16.1
2019-05-03T10:50:50.950Z,16.3
2019-05-03T10:51:50.806Z,16.3
2019-05-03T10:52:51.498Z,16.6
2019-05-03T10:53:54.584Z,16.3
2019-05-03T10:54:52.888Z,16.4
2019-05-03T10:55:55.523Z,16.4
2019-05-03T10:56:55.907Z,16.1
2019-05-03T10:57:54.963Z,15.6
2019-05-03T10:58:55.668Z,15.4
2019-05-03T10:59:56.360Z,15.2
2019-05-03T11:00:57.045Z,15.1
2019-05-03T11:01:57.735Z,14.6
2019-05-03T11:02:58.430Z,14.4
2019-05-03T11:03:59.122Z,14.4
2019-05-03T11:04:59.825Z,14.5
2019-05-03T11:06:00.506Z,14.6
2019-05-03T11:07:01.196Z,14.5
2019-05-03T11:08:01.900Z,14.4
2019-05-03T11:09:02.608Z,14.5
2019-05-03T11:10:05.171Z,14.5
2019-05-03T11:11:05.931Z,14.8
2019-05-03T11:12:05.347Z,14.7
2019-05-03T11:13:06.068Z,14.5
2019-05-03T11:14:06.749Z,14.4
2019-05-03T11:15:07.417Z,14.6
2019-05-03T11:16:08.110Z,14.7
2019-05-03T11:17:08.804Z,14.6
2019-05-03T11:18:09.499Z,14.8
2019-05-03T11:19:10.164Z,15.2
2019-05-03T11:20:10.861Z,15.7
2019-05-03T11:21:11.552Z,15.5
2019-05-03T11:22:14.455Z,15.4
2019-05-03T11:23:14.609Z,15.1
2019-05-03T11:24:14.777Z,15.0
2019-05-03T11:25:14.322Z,15.0
2019-05-03T11:26:15.007Z,14.9
2019-05-03T11:27:15.705Z,14.9
2019-05-03T11:28:16.398Z,14.9
2019-05-03T11:29:17.096Z,14.6
2019-05-03T11:30:17.903Z,14.7
2019-05-03T11:31:18.681Z,14.7
2019-05-03T11:32:19.454Z,14.6
2019-05-03T11:33:20.014Z,14.7
2019-05-03T11:34:22.496Z,14.6
2019-05-03T11:35:21.406Z,14.6
2019-05-03T11:36:22.096Z,14.6
2019-05-03T11:37:22.790Z,14.5
2019-05-03T11:38:25.359Z,14.4
2019-05-03T11:39:25.082Z,14.5
2019-05-03T11:40:25.216Z,15.3
2019-05-03T11:41:32.489Z,16.0
2019-05-03T11:42:26.264Z,16.3
2019-05-03T11:43:26.950Z,16.4
2019-05-03T11:44:27.647Z,17.2
2019-05-03T11:45:28.358Z,17.8
2019-05-03T11:46:29.013Z,17.8
2019-05-03T11:47:29.709Z,17.6
2019-05-03T11:48:30.483Z,17.5
2019-05-03T11:49:31.177Z,17.0
2019-05-03T11:50:31.867Z,16.3
2019-05-03T11:51:32.568Z,15.8
2019-05-03T11:52:35.576Z,15.3
2019-05-03T11:53:35.630Z,15.0
2019-05-03T11:54:36.005Z,14.6
2019-05-03T11:55:36.295Z,14.7
2019-05-03T11:56:36.990Z,14.6
2019-05-03T11:57:37.699Z,14.6
2019-05-03T11:58:38.383Z,14.5
2019-05-03T11:59:39.079Z,14.5
2019-05-03T12:00:39.771Z,14.5
2019-05-03T12:01:40.465Z,14.5
2019-05-03T12:02:41.163Z,14.5
2019-05-03T12:03:41.860Z,14.7
2019-05-03T12:04:42.549Z,15.0
2019-05-03T12:05:43.242Z,14.6
2019-05-03T12:06:45.570Z,14.5
2019-05-03T12:07:45.530Z,14.4
2019-05-03T12:08:45.317Z,14.6
2019-05-03T12:09:46.013Z,14.7
2019-05-03T12:10:55.181Z,14.7
2019-05-03T12:11:47.429Z,14.9
2019-05-03T12:12:48.123Z,14.9
2019-05-03T12:14:01.135Z,14.9
2019-05-03T12:14:49.503Z,14.9
2019-05-03T12:15:50.202Z,14.8
2019-05-03T12:17:56.336Z,14.6
2019-05-03T12:18:54.641Z,14.7
2019-05-03T12:19:56.837Z,14.7
2019-05-03T12:20:57.095Z,14.6
2019-05-03T12:21:55.899Z,14.9
2019-05-03T12:22:56.711Z,14.9
2019-05-03T12:23:57.175Z,14.9
2019-05-03T12:24:57.965Z,14.8
2019-05-03T12:25:58.661Z,14.9
2019-05-03T12:26:58.783Z,15.1
2019-05-03T12:27:59.485Z,15.9
2019-05-03T12:29:00.177Z,16.8
2019-05-03T12:30:00.872Z,17.5
2019-05-03T12:31:01.568Z,17.8
2019-05-03T12:32:02.269Z,17.8
2019-05-03T12:33:05.680Z,17.7
2019-05-03T12:34:05.822Z,17.1
2019-05-03T12:35:06.076Z,16.6
2019-05-03T12:36:05.522Z,16.3
2019-05-03T12:37:05.756Z,16.0
2019-05-03T12:38:06.430Z,16.0
2019-05-03T12:39:22.879Z,15.9
2019-05-03T12:40:07.814Z,15.7
2019-05-03T12:41:08.511Z,15.6
2019-05-03T12:42:09.204Z,15.4
2019-05-03T12:43:09.895Z,15.4
2019-05-03T12:44:10.589Z,15.2
2019-05-03T12:45:11.283Z,15.1
2019-05-03T12:46:11.980Z,15.1
2019-05-03T12:47:14.483Z,14.8
2019-05-03T12:48:15.375Z,14.6
2019-05-03T12:49:15.483Z,14.5
2019-05-03T12:50:15.625Z,14.9
2019-05-03T12:51:15.768Z,14.9
2019-05-03T12:52:16.692Z,14.9
2019-05-03T12:53:16.812Z,14.8
2019-05-03T12:54:17.510Z,14.7
2019-05-03T12:55:18.205Z,14.8
2019-05-03T12:56:23.814Z,14.8
2019-05-03T12:57:19.598Z,14.8
2019-05-03T12:58:20.290Z,14.8
2019-05-03T12:59:20.983Z,14.8
2019-05-03T13:00:21.676Z,14.8
2019-05-03T13:01:22.375Z,14.9
2019-05-03T13:02:24.752Z,15.0
2019-05-03T13:03:24.642Z,15.3
2019-05-03T13:04:24.852Z,15.7
2019-05-03T13:05:25.146Z,15.8
2019-05-03T13:06:25.813Z,15.7
2019-05-03T13:07:26.528Z,16.4
2019-05-03T13:08:27.225Z,16.3
2019-05-03T13:09:27.917Z,16.4
2019-05-03T13:10:28.605Z,16.3
2019-05-03T13:11:29.269Z,16.3
2019-05-03T13:12:29.935Z,16.5
2019-05-03T13:13:30.628Z,16.5
2019-05-03T13:14:31.323Z,17.0
2019-05-03T13:15:32.021Z,17.1
2019-05-03T13:16:32.708Z,16.5
2019-05-03T13:17:33.415Z,16.4
2019-05-03T13:18:35.178Z,16.1
2019-05-03T13:19:35.046Z,16.0
2019-05-03T13:20:36.082Z,15.8
2019-05-03T13:21:36.175Z,15.5
2019-05-03T13:22:36.871Z,15.1
2019-05-03T13:23:37.567Z,14.8
2019-05-03T13:24:38.248Z,14.6
2019-05-03T13:25:38.950Z,14.3
2019-05-03T13:26:39.643Z,14.1
2019-05-03T13:27:40.336Z,13.9
2019-05-03T13:28:41.029Z,13.9
2019-05-03T13:29:41.720Z,13.9
2019-05-03T13:30:42.415Z,13.9
2019-05-03T13:31:55.754Z,13.9
2019-05-03T13:32:45.487Z,14.0
2019-05-03T13:33:45.440Z,14.0
2019-05-03T13:34:45.193Z,14.4
2019-05-03T13:35:45.890Z,14.9
2019-05-03T13:36:46.591Z,15.7
2019-05-03T13:37:47.280Z,16.3
2019-05-03T13:38:47.969Z,16.7
2019-05-03T13:39:48.662Z,17.3
2019-05-03T13:40:49.357Z,16.8
2019-05-03T13:41:50.048Z,16.7
2019-05-03T13:42:57.131Z,16.5